Time;durP1;ratioP1;P1;durP2;ratioP2;P2;SDS_P1;SDS_P2;PMS_P1;PMS_P2;Temp;Humidity;BMP_temperature;BMP_pressure;BME280_temperature;BME280_humidity;BME280_pressure;Samples;Min_cycle;Max_cycle;Signal;HPM_P1;HPM_P2
2022/03/15 00:01:47;;;;;;;12.43;4.53;;;6.10;99.90;;;;;;1924588;73;21070;-75
2022/03/15 00:04:15;;;;;;;12.75;3.75;;;6.00;99.90;;;;;;1924783;72;21107;-75
2022/03/15 00:06:42;;;;;;;7.87;3.87;;;6.20;99.90;;;;;;1928969;72;21165;-76
2022/03/15 00:09:09;;;;;;;12.53;4.08;;;6.20;99.90;;;;;;1930884;72;21140;-76
2022/03/15 00:11:40;;;;;;;10.50;4.08;;;6.20;99.90;;;;;;1939928;72;21135;-75
2022/03/15 00:14:06;;;;;;;8.10;4.20;;;6.20;99.90;;;;;;1929453;72;21144;-75
2022/03/15 00:16:35;;;;;;;11.68;4.30;;;6.20;99.90;;;;;;1899284;72;21127;-75
2022/03/15 00:19:03;;;;;;;7.67;4.37;;;6.20;99.90;;;;;;1932154;73;21079;-74
2022/03/15 00:21:31;;;;;;;7.75;3.92;;;6.20;99.90;;;;;;1942873;72;21149;-74
2022/03/15 00:23:59;;;;;;;7.67;4.42;;;6.10;99.90;;;;;;1940435;73;21170;-74
2022/03/15 00:26:28;;;;;;;14.40;4.62;;;6.00;99.90;;;;;;1924999;73;21158;-75
2022/03/15 00:28:55;;;;;;;10.98;3.72;;;6.00;99.90;;;;;;1930864;73;21138;-75
2022/03/15 00:31:23;;;;;;;16.30;4.17;;;6.00;99.90;;;;;;1929856;73;21237;-75
2022/03/15 00:33:51;;;;;;;10.20;4.08;;;6.10;99.90;;;;;;1929099;73;21456;-74
2022/03/15 00:36:18;;;;;;;8.30;4.05;;;6.10;99.90;;;;;;1942220;72;21464;-76
2022/03/15 00:38:45;;;;;;;10.23;4.72;;;6.00;99.90;;;;;;1937213;73;21198;-75
2022/03/15 00:41:13;;;;;;;7.12;4.62;;;5.90;99.90;;;;;;1935886;72;21549;-75
2022/03/15 00:43:40;;;;;;;9.93;4.75;;;5.80;99.90;;;;;;1937892;72;21476;-75
2022/03/15 00:46:08;;;;;;;9.85;4.97;;;5.90;99.90;;;;;;1926870;73;21038;-75
2022/03/15 00:48:36;;;;;;;9.78;4.42;;;5.90;99.90;;;;;;1927180;73;21081;-75
2022/03/15 00:51:03;;;;;;;8.20;3.98;;;6.00;99.90;;;;;;1931530;72;21126;-76
2022/03/15 00:53:30;;;;;;;10.75;4.17;;;6.00;99.90;;;;;;1935338;72;21199;-75
2022/03/15 00:55:58;;;;;;;7.65;4.17;;;6.00;99.90;;;;;;1933907;73;21069;-75
2022/03/15 00:58:25;;;;;;;8.90;3.83;;;6.00;99.90;;;;;;1932355;72;21077;-75
2022/03/15 01:00:52;;;;;;;10.28;4.12;;;5.90;99.90;;;;;;1930502;72;21200;-75
2022/03/15 01:03:20;;;;;;;9.18;4.50;;;5.80;99.90;;;;;;1934957;73;21121;-75
2022/03/15 01:05:47;;;;;;;7.37;3.75;;;5.80;99.90;;;;;;1925230;73;21067;-75
2022/03/15 01:08:15;;;;;;;11.28;3.80;;;5.70;99.90;;;;;;1938006;73;21144;-74
2022/03/15 01:10:43;;;;;;;8.15;4.17;;;5.80;99.90;;;;;;1938529;74;21146;-75
2022/03/15 01:13:12;;;;;;;8.80;3.83;;;5.90;99.90;;;;;;1919409;73;21422;-74
2022/03/15 01:15:42;;;;;;;6.25;3.62;;;6.00;99.90;;;;;;1941972;74;21461;-75
2022/03/15 01:18:13;;;;;;;6.08;3.45;;;6.00;99.90;;;;;;1936207;72;21154;-75
2022/03/15 01:20:41;;;;;;;6.83;4.25;;;6.00;99.90;;;;;;1936949;73;21134;-74
2022/03/15 01:23:08;;;;;;;10.35;4.15;;;6.00;99.90;;;;;;1929894;73;21073;-75
2022/03/15 01:25:37;;;;;;;8.35;3.90;;;6.00;99.90;;;;;;1924925;72;21481;-75
2022/03/15 01:28:05;;;;;;;9.40;4.78;;;6.00;99.90;;;;;;1931380;73;21138;-74
2022/03/15 01:30:33;;;;;;;7.78;4.15;;;5.90;99.90;;;;;;1927356;73;21044;-75
2022/03/15 01:33:00;;;;;;;10.45;4.03;;;5.90;99.90;;;;;;1941416;74;21163;-75
2022/03/15 01:35:27;;;;;;;6.70;3.80;;;5.80;99.90;;;;;;1937647;72;21488;-75
2022/03/15 01:37:55;;;;;;;5.87;3.60;;;5.80;99.90;;;;;;1923251;73;21530;-75
2022/03/15 01:40:23;;;;;;;5.70;3.50;;;5.70;99.90;;;;;;1935270;72;21146;-75
2022/03/15 01:42:50;;;;;;;9.85;4.17;;;5.70;99.90;;;;;;1933897;73;21084;-75
2022/03/15 01:45:18;;;;;;;7.17;3.60;;;5.70;99.90;;;;;;1942119;72;21134;-75
2022/03/15 01:47:46;;;;;;;5.28;3.62;;;5.80;99.90;;;;;;1930907;72;21422;-75
2022/03/15 01:50:13;;;;;;;8.60;4.00;;;5.80;99.90;;;;;;1934458;72;21053;-75
2022/03/15 01:52:41;;;;;;;13.62;4.25;;;5.80;99.90;;;;;;1928468;73;21614;-76
2022/03/15 01:55:08;;;;;;;10.25;4.45;;;5.70;99.90;;;;;;1936498;74;21141;-75
2022/03/15 01:57:35;;;;;;;10.28;4.67;;;5.60;99.90;;;;;;1937784;74;21072;-75
2022/03/15 02:00:04;;;;;;;9.70;4.62;;;5.60;99.90;;;;;;1939548;74;21067;-75
2022/03/15 02:02:31;;;;;;;8.10;3.90;;;5.40;99.90;;;;;;1938448;72;21728;-74
2022/03/15 02:04:59;;;;;;;13.08;3.75;;;5.40;99.90;;;;;;1927710;72;21077;-75
2022/03/15 02:07:26;;;;;;;11.22;4.47;;;5.60;99.90;;;;;;1899300;74;21135;-74
2022/03/15 02:09:53;;;;;;;6.83;3.52;;;5.60;99.90;;;;;;1930345;73;21192;-74
2022/03/15 02:12:21;;;;;;;11.03;3.90;;;5.70;99.90;;;;;;1924271;73;21191;-74
2022/03/15 02:14:48;;;;;;;7.62;3.77;;;5.70;99.90;;;;;;1936842;72;21459;-75
2022/03/15 02:17:15;;;;;;;9.70;4.05;;;5.70;99.90;;;;;;1937565;74;21068;-75
2022/03/15 02:19:44;;;;;;;29.98;3.77;;;5.60;99.90;;;;;;1928779;73;21073;-75
2022/03/15 02:22:11;;;;;;;6.45;3.70;;;5.40;99.90;;;;;;1930802;73;21085;-75
2022/03/15 02:24:39;;;;;;;7.40;4.00;;;5.60;99.90;;;;;;1934144;72;21081;-75
2022/03/15 02:27:06;;;;;;;7.97;3.87;;;5.60;99.90;;;;;;1939481;72;21206;-74
2022/03/15 02:29:33;;;;;;;8.45;3.80;;;5.60;99.90;;;;;;1930215;73;21068;-75
2022/03/15 02:32:01;;;;;;;8.88;4.35;;;5.50;99.90;;;;;;1929017;73;21045;-75
2022/03/15 02:34:28;;;;;;;7.92;3.50;;;5.40;99.90;;;;;;1933839;72;21045;-74
2022/03/15 02:36:56;;;;;;;5.97;3.70;;;5.30;99.90;;;;;;1934813;73;21068;-75
2022/03/15 02:39:42;;;;;;;10.15;3.80;;;5.40;99.90;;;;;;1930067;73;21083;-74
2022/03/15 02:42:10;;;;;;;8.53;3.40;;;5.50;99.90;;;;;;2027622;70;21470;-74
2022/03/15 02:44:37;;;;;;;7.28;3.70;;;5.60;99.90;;;;;;2039427;69;21050;-75
2022/03/15 02:47:04;;;;;;;13.35;4.00;;;5.60;99.90;;;;;;2023246;69;21023;-74
2022/03/15 02:49:32;;;;;;;6.35;3.80;;;5.50;99.90;;;;;;2031199;70;21027;-75
2022/03/15 02:51:59;;;;;;;13.68;3.98;;;5.50;99.90;;;;;;2022864;69;21442;-75
2022/03/15 02:54:27;;;;;;;13.43;4.10;;;5.40;99.90;;;;;;1998118;69;21066;-74
2022/03/15 02:56:54;;;;;;;8.85;3.85;;;5.40;99.90;;;;;;2038278;69;21220;-74
2022/03/15 02:59:22;;;;;;;8.43;4.00;;;5.50;99.90;;;;;;1998546;70;21071;-75
2022/03/15 03:01:50;;;;;;;11.38;3.77;;;5.60;99.90;;;;;;2031936;70;21124;-75
2022/03/15 03:04:18;;;;;;;6.92;3.77;;;5.50;99.90;;;;;;2003918;70;21049;-75
2022/03/15 03:06:46;;;;;;;9.35;4.00;;;5.50;99.90;;;;;;2029376;69;21091;-74
2022/03/15 03:09:16;;;;;;;10.10;4.60;;;5.60;99.90;;;;;;2025165;70;21071;-75
2022/03/15 03:11:43;;;;;;;8.83;4.17;;;5.60;99.90;;;;;;2040281;70;21160;-74
2022/03/15 03:14:12;;;;;;;6.92;3.65;;;5.60;99.90;;;;;;2040005;69;21564;-74
2022/03/15 03:16:39;;;;;;;7.65;3.70;;;5.50;99.90;;;;;;2023237;70;21087;-74
2022/03/15 03:19:08;;;;;;;9.33;3.83;;;5.50;99.90;;;;;;2032209;70;21059;-74
2022/03/15 03:21:36;;;;;;;19.70;4.10;;;5.60;99.90;;;;;;2027637;69;21139;-74
2022/03/15 03:24:06;;;;;;;7.25;3.67;;;5.60;99.90;;;;;;2023915;70;21054;-74
2022/03/15 03:26:36;;;;;;;5.45;3.77;;;5.60;99.90;;;;;;2025632;69;21439;-73
2022/03/15 03:29:09;;;;;;;7.63;3.83;;;5.70;99.90;;;;;;2030398;69;21507;-75
2022/03/15 03:31:32;;;;;;;9.05;3.77;;;5.70;99.90;;;;;;1983601;70;21108;-75
2022/03/15 03:33:59;;;;;;;7.47;3.70;;;5.70;99.90;;;;;;2031901;70;21058;-75
2022/03/15 03:36:27;;;;;;;8.88;4.10;;;5.80;99.90;;;;;;2036806;69;21205;-75
2022/03/15 03:38:55;;;;;;;11.83;4.15;;;5.70;99.90;;;;;;2015511;70;21109;-75
2022/03/15 03:41:22;;;;;;;8.68;3.80;;;5.70;99.90;;;;;;2021842;69;21135;-75
2022/03/15 03:43:49;;;;;;;10.00;4.42;;;5.70;99.90;;;;;;2031780;70;21046;-75
2022/03/15 03:46:17;;;;;;;5.70;3.47;;;5.70;99.90;;;;;;2032601;70;21455;-75
2022/03/15 03:48:45;;;;;;;8.40;3.92;;;5.70;99.90;;;;;;2030818;69;21457;-75
2022/03/15 03:51:13;;;;;;;6.47;3.55;;;5.70;99.90;;;;;;2030911;70;21535;-74
2022/03/15 03:53:41;;;;;;;6.17;3.70;;;5.60;99.90;;;;;;2030665;69;21489;-75
2022/03/15 03:56:10;;;;;;;6.70;3.62;;;5.60;99.90;;;;;;2039368;69;21113;-76
2022/03/15 03:58:37;;;;;;;7.53;3.62;;;5.60;99.90;;;;;;2038516;69;21058;-75
2022/03/15 04:01:05;;;;;;;8.43;3.75;;;5.60;99.90;;;;;;2032670;69;21100;-74
2022/03/15 04:03:33;;;;;;;7.08;3.95;;;5.50;99.90;;;;;;2021356;70;21074;-74
2022/03/15 04:06:03;;;;;;;8.18;4.10;;;5.40;99.90;;;;;;2027511;69;21072;-75
2022/03/15 04:08:31;;;;;;;6.97;4.12;;;5.40;99.90;;;;;;2029530;69;21143;-73
2022/03/15 04:11:00;;;;;;;11.00;4.17;;;5.30;99.90;;;;;;2039433;69;21499;-74
2022/03/15 04:13:27;;;;;;;11.38;4.12;;;5.40;99.90;;;;;;2033178;70;21083;-74
2022/03/15 04:15:55;;;;;;;8.48;4.20;;;5.30;99.90;;;;;;2036633;70;21420;-75
2022/03/15 04:18:22;;;;;;;10.03;4.20;;;5.30;99.90;;;;;;2023868;69;21123;-74
2022/03/15 04:20:50;;;;;;;8.98;3.92;;;5.30;99.90;;;;;;2029967;69;21113;-75
2022/03/15 04:23:17;;;;;;;9.20;4.15;;;5.40;99.90;;;;;;2030710;70;21086;-74
2022/03/15 04:25:44;;;;;;;10.68;4.15;;;5.30;99.90;;;;;;2026310;69;21131;-73
2022/03/15 04:28:12;;;;;;;15.10;4.28;;;5.30;99.90;;;;;;2031105;69;21023;-74
2022/03/15 04:30:39;;;;;;;7.85;3.77;;;5.40;99.90;;;;;;2031791;69;21228;-74
2022/03/15 04:33:07;;;;;;;8.90;4.40;;;5.40;99.90;;;;;;2034592;70;21139;-74
2022/03/15 04:35:34;;;;;;;8.48;3.70;;;5.50;99.90;;;;;;2031617;70;21140;-73
2022/03/15 04:38:02;;;;;;;7.58;3.27;;;5.50;99.90;;;;;;2024822;69;21058;-74
2022/03/15 04:40:30;;;;;;;9.38;4.05;;;5.50;99.90;;;;;;2023032;69;21101;-74
2022/03/15 04:42:59;;;;;;;8.33;4.50;;;5.50;99.90;;;;;;2013056;69;21231;-73
2022/03/15 04:45:26;;;;;;;8.15;3.95;;;5.40;99.90;;;;;;2032256;70;21082;-74
2022/03/15 04:47:54;;;;;;;5.78;3.90;;;5.30;99.90;;;;;;2031833;69;21124;-74
2022/03/15 04:50:21;;;;;;;6.60;4.17;;;5.40;99.90;;;;;;2018540;70;21063;-74
2022/03/15 04:52:48;;;;;;;8.10;4.40;;;5.30;99.90;;;;;;2021995;69;21407;-74
2022/03/15 04:55:17;;;;;;;7.50;4.53;;;5.30;99.90;;;;;;2040900;69;21176;-74
2022/03/15 04:57:44;;;;;;;12.88;5.15;;;5.30;99.90;;;;;;2043572;69;21079;-75
2022/03/15 05:00:12;;;;;;;11.73;4.92;;;5.30;99.90;;;;;;2025709;69;21204;-74
2022/03/15 05:02:41;;;;;;;13.68;4.83;;;5.30;99.90;;;;;;2027432;69;21120;-73
2022/03/15 05:05:12;;;;;;;9.50;4.60;;;5.30;99.90;;;;;;2031571;69;21164;-74
2022/03/15 05:07:40;;;;;;;7.75;4.45;;;5.20;99.90;;;;;;2040580;69;21583;-73
2022/03/15 05:12:52;;;;;;;9.65;4.70;;;5.30;99.90;;;;;;2031023;70;21144;-74
2022/03/15 05:15:20;;;;;;;9.35;4.42;;;5.20;99.90;;;;;;2038362;70;21050;-73
2022/03/15 05:17:48;;;;;;;9.58;4.53;;;5.10;99.90;;;;;;2023266;70;21199;-74
2022/03/15 05:20:15;;;;;;;8.53;4.28;;;5.10;99.90;;;;;;2039790;69;21054;-75
2022/03/15 05:22:47;;;;;;;8.30;4.10;;;5.10;99.90;;;;;;2037040;69;21534;-75
2022/03/15 05:25:13;;;;;;;8.03;4.42;;;5.10;99.90;;;;;;2032390;69;21063;-73
2022/03/15 05:27:41;;;;;;;12.20;4.45;;;5.10;99.90;;;;;;2034179;69;21058;-75
2022/03/15 05:30:09;;;;;;;11.18;4.30;;;5.10;99.90;;;;;;2019466;69;21058;-75
2022/03/15 05:32:36;;;;;;;8.28;4.30;;;5.20;99.90;;;;;;2029978;70;21051;-75
2022/03/15 05:35:04;;;;;;;10.40;4.17;;;5.20;99.90;;;;;;2018896;70;21145;-75
2022/03/15 05:37:33;;;;;;;16.07;5.45;;;5.10;99.90;;;;;;2038533;69;21062;-75
2022/03/15 05:40:02;;;;;;;10.53;4.30;;;5.10;99.90;;;;;;2031183;69;21085;-75
2022/03/15 05:42:29;;;;;;;10.03;4.40;;;5.10;99.90;;;;;;2022773;70;21197;-73
2022/03/15 05:44:58;;;;;;;10.53;5.30;;;5.10;99.90;;;;;;2037970;69;21054;-75
2022/03/15 05:47:25;;;;;;;11.95;4.37;;;5.10;99.90;;;;;;2031978;69;21054;-74
2022/03/15 05:49:53;;;;;;;11.70;4.47;;;5.10;99.90;;;;;;2031037;69;21054;-74
2022/03/15 05:52:20;;;;;;;8.68;4.53;;;5.10;99.90;;;;;;2019428;70;21111;-75
2022/03/15 05:54:47;;;;;;;6.60;4.42;;;5.10;99.90;;;;;;1993855;70;21123;-75
2022/03/15 05:57:15;;;;;;;7.72;4.85;;;5.30;99.90;;;;;;2031666;69;21175;-73
2022/03/15 05:59:42;;;;;;;13.68;5.17;;;5.20;99.90;;;;;;2036662;69;21027;-75
2022/03/15 06:02:09;;;;;;;14.95;4.35;;;5.20;99.90;;;;;;2032024;70;21042;-76
2022/03/15 06:04:37;;;;;;;14.63;5.17;;;5.10;99.90;;;;;;2023284;69;21046;-75
2022/03/15 06:07:04;;;;;;;8.45;4.42;;;5.20;99.90;;;;;;2014656;69;21016;-77
2022/03/15 06:09:32;;;;;;;7.40;4.25;;;5.20;99.90;;;;;;2029611;69;21458;-76
2022/03/15 06:11:59;;;;;;;13.88;4.53;;;5.30;99.90;;;;;;2035550;69;21442;-76
2022/03/15 06:14:26;;;;;;;7.80;4.55;;;5.40;99.90;;;;;;2029971;69;21137;-76
2022/03/15 06:16:53;;;;;;;15.80;4.85;;;5.50;99.90;;;;;;2029498;70;21144;-75
2022/03/15 06:19:21;;;;;;;21.50;5.12;;;5.60;99.90;;;;;;2030991;69;21092;-77
2022/03/15 06:21:48;;;;;;;8.45;5.37;;;5.50;99.90;;;;;;2024940;69;21087;-75
2022/03/15 06:24:16;;;;;;;12.80;5.37;;;5.50;99.90;;;;;;2009589;69;21054;-75
2022/03/15 06:26:46;;;;;;;17.05;5.47;;;5.50;99.90;;;;;;2028022;69;21081;-76
2022/03/15 06:29:13;;;;;;;12.93;5.12;;;5.40;99.90;;;;;;2022181;69;21074;-72
2022/03/15 06:31:40;;;;;;;12.35;4.97;;;5.50;99.90;;;;;;2037624;69;21071;-75
2022/03/15 06:34:07;;;;;;;11.60;4.90;;;5.40;99.90;;;;;;2032156;69;21062;-74
2022/03/15 06:36:35;;;;;;;10.00;5.33;;;5.50;99.90;;;;;;2035054;69;21086;-74
2022/03/15 06:39:05;;;;;;;10.05;4.45;;;5.50;99.90;;;;;;2040265;69;21083;-73
2022/03/15 06:41:38;;;;;;;8.68;4.20;;;5.60;99.90;;;;;;2042886;70;21088;-73
2022/03/15 06:44:02;;;;;;;4.42;3.87;;;5.60;99.90;;;;;;2025945;70;21160;-73
2022/03/15 06:46:30;;;;;;;15.10;4.55;;;5.70;99.90;;;;;;2040314;69;21063;-74
2022/03/15 06:48:58;;;;;;;10.00;4.25;;;5.70;99.90;;;;;;2038478;70;21035;-73
2022/03/15 06:51:26;;;;;;;17.57;4.70;;;5.80;99.90;;;;;;2038922;69;21123;-73
2022/03/15 06:53:53;;;;;;;6.75;4.60;;;5.80;99.90;;;;;;2028645;69;21090;-75
2022/03/15 06:56:24;;;;;;;17.02;4.95;;;5.90;99.90;;;;;;2015904;69;21140;-74
2022/03/15 06:58:51;;;;;;;9.35;4.12;;;6.00;99.90;;;;;;2030718;70;21054;-72
2022/03/15 07:01:19;;;;;;;11.43;4.42;;;6.00;99.90;;;;;;2028256;70;21524;-77
2022/03/15 07:03:46;;;;;;;7.03;4.22;;;6.20;99.90;;;;;;2040389;69;21151;-78
2022/03/15 07:06:14;;;;;;;8.73;3.90;;;6.20;99.90;;;;;;2033290;69;21069;-74
2022/03/15 07:08:41;;;;;;;12.20;4.12;;;6.20;99.90;;;;;;2007912;70;21073;-75
2022/03/15 07:11:08;;;;;;;9.50;4.20;;;6.30;99.90;;;;;;2039860;69;21054;-76
2022/03/15 07:13:36;;;;;;;8.48;3.67;;;6.40;99.90;;;;;;2032064;70;21422;-76
2022/03/15 07:16:03;;;;;;;7.35;3.87;;;6.40;99.90;;;;;;2026543;69;21055;-75
2022/03/15 07:18:30;;;;;;;9.78;4.40;;;6.40;99.90;;;;;;2029300;69;21106;-76
2022/03/15 07:20:58;;;;;;;8.85;3.92;;;6.50;99.90;;;;;;2038426;69;21469;-75
2022/03/15 07:23:25;;;;;;;12.05;4.33;;;6.50;99.90;;;;;;2028213;69;21261;-75
2022/03/15 07:25:52;;;;;;;8.83;4.08;;;6.70;99.90;;;;;;2039889;70;21071;-76
2022/03/15 07:28:20;;;;;;;12.33;4.42;;;6.90;99.90;;;;;;2038119;69;21466;-75
2022/03/15 07:30:47;;;;;;;14.93;4.58;;;6.80;99.90;;;;;;2031733;70;21217;-72
2022/03/15 07:33:14;;;;;;;11.33;5.00;;;6.70;99.90;;;;;;2039565;69;21181;-77
2022/03/15 07:35:42;;;;;;;10.48;4.22;;;6.80;99.90;;;;;;2029459;69;21527;-76
2022/03/15 07:38:09;;;;;;;9.13;3.90;;;6.90;99.90;;;;;;2024424;69;21051;-76
2022/03/15 07:40:37;;;;;;;8.45;3.92;;;7.00;99.90;;;;;;2018225;69;21142;-75
2022/03/15 07:43:05;;;;;;;8.65;4.30;;;7.00;99.90;;;;;;2023636;69;21063;-76
2022/03/15 07:45:32;;;;;;;10.28;4.30;;;6.90;99.90;;;;;;2037838;70;21023;-75
2022/03/15 07:48:00;;;;;;;9.55;4.22;;;7.10;99.90;;;;;;2017968;69;21516;-75
2022/03/15 07:50:27;;;;;;;7.58;4.20;;;7.10;99.90;;;;;;2033975;69;21126;-74
2022/03/15 07:52:54;;;;;;;9.78;4.40;;;7.00;99.90;;;;;;2038364;69;21054;-76
2022/03/15 07:55:22;;;;;;;8.40;4.47;;;7.10;99.90;;;;;;2035120;69;21099;-76
2022/03/15 07:57:49;;;;;;;9.85;4.05;;;7.00;99.90;;;;;;2031949;69;21434;-76
2022/03/15 08:00:17;;;;;;;8.63;3.98;;;6.90;99.90;;;;;;2031592;69;21057;-76
2022/03/15 08:02:44;;;;;;;8.13;4.05;;;7.10;99.90;;;;;;2033781;69;21124;-77
2022/03/15 08:05:11;;;;;;;10.05;4.03;;;7.30;99.90;;;;;;2031575;69;21042;-76
2022/03/15 08:07:39;;;;;;;9.48;4.42;;;7.30;99.90;;;;;;2040884;69;21531;-76
2022/03/15 08:10:07;;;;;;;7.10;3.80;;;7.40;99.90;;;;;;2040615;70;21532;-77
2022/03/15 08:12:36;;;;;;;14.23;4.33;;;7.40;99.90;;;;;;2040526;70;21074;-77
2022/03/15 08:15:04;;;;;;;7.53;4.47;;;7.50;99.90;;;;;;2030850;69;21071;-76
2022/03/15 08:17:31;;;;;;;9.45;3.85;;;7.60;99.90;;;;;;2031494;69;21408;-76
2022/03/15 08:20:00;;;;;;;7.45;3.85;;;7.70;99.90;;;;;;2028245;69;21046;-77
2022/03/15 08:22:30;;;;;;;15.90;6.50;;;7.70;99.90;;;;;;2027329;69;21135;-77
2022/03/15 08:24:57;;;;;;;9.63;3.87;;;7.90;99.90;;;;;;2031541;69;21075;-76
2022/03/15 08:27:24;;;;;;;16.37;3.95;;;7.90;99.90;;;;;;2032042;69;21019;-76
2022/03/15 08:29:51;;;;;;;7.05;3.65;;;8.00;99.90;;;;;;2040775;69;21058;-77
2022/03/15 08:32:19;;;;;;;8.15;3.95;;;8.10;99.90;;;;;;2022667;70;21069;-75
2022/03/15 08:34:46;;;;;;;16.05;4.22;;;8.30;99.90;;;;;;2021327;69;21227;-77
2022/03/15 08:37:14;;;;;;;34.08;4.72;;;8.50;99.90;;;;;;2038408;69;21193;-76
2022/03/15 08:39:41;;;;;;;12.90;4.40;;;8.70;99.90;;;;;;2022343;69;21139;-76
2022/03/15 08:42:09;;;;;;;6.47;3.60;;;8.40;99.90;;;;;;2029364;70;21178;-77
2022/03/15 08:44:37;;;;;;;14.55;4.33;;;8.40;99.90;;;;;;2032137;70;21464;-76
2022/03/15 08:47:05;;;;;;;7.78;4.10;;;8.50;99.90;;;;;;2020677;70;21530;-77
2022/03/15 08:49:32;;;;;;;11.25;4.20;;;8.60;99.90;;;;;;2027244;70;21059;-76
2022/03/15 08:52:00;;;;;;;10.05;3.65;;;8.70;99.90;;;;;;2021661;69;21050;-76
2022/03/15 08:54:28;;;;;;;8.18;4.35;;;8.90;99.90;;;;;;2018814;70;21086;-77
2022/03/15 08:56:56;;;;;;;17.75;4.40;;;8.70;99.90;;;;;;2028209;69;21061;-76
2022/03/15 08:59:25;;;;;;;9.98;3.90;;;8.70;99.90;;;;;;2035055;69;21062;-76
2022/03/15 09:01:53;;;;;;;7.95;4.15;;;8.60;99.90;;;;;;2039035;69;21065;-77
2022/03/15 09:04:20;;;;;;;7.83;3.35;;;8.80;99.90;;;;;;2019647;69;21103;-76
2022/03/15 09:06:47;;;;;;;8.90;3.50;;;9.10;99.90;;;;;;2027235;69;21116;-77
2022/03/15 09:09:21;;;;;;;5.35;3.30;;;9.10;99.90;;;;;;2038769;69;21108;-76
2022/03/15 09:11:47;;;;;;;9.50;3.72;;;9.20;99.90;;;;;;2025772;69;21126;-76
2022/03/15 09:14:15;;;;;;;9.50;4.20;;;9.40;99.90;;;;;;2008743;70;21226;-77
2022/03/15 09:16:42;;;;;;;12.28;3.77;;;9.40;99.90;;;;;;2029671;69;21050;-77
2022/03/15 09:19:11;;;;;;;11.83;3.67;;;9.30;99.90;;;;;;2003905;70;21123;-76
2022/03/15 09:21:38;;;;;;;11.50;5.03;;;9.30;99.90;;;;;;2035936;69;21123;-77
2022/03/15 09:24:06;;;;;;;8.18;3.60;;;9.70;99.90;;;;;;2039750;69;21054;-78
2022/03/15 09:26:34;;;;;;;9.33;3.77;;;10.00;99.90;;;;;;2025786;69;21404;-76
2022/03/15 09:29:01;;;;;;;11.30;4.40;;;9.80;99.90;;;;;;2036919;69;21541;-77
2022/03/15 09:31:28;;;;;;;19.25;4.28;;;9.80;99.90;;;;;;2037398;70;21050;-76
2022/03/15 09:33:56;;;;;;;9.28;3.90;;;10.00;99.90;;;;;;2023189;70;21590;-76
2022/03/15 09:36:23;;;;;;;9.85;4.03;;;10.10;99.90;;;;;;2016722;70;21062;-77
2022/03/15 09:38:51;;;;;;;8.25;4.03;;;9.80;99.90;;;;;;2038205;70;21541;-76
2022/03/15 09:41:18;;;;;;;10.78;3.58;;;9.70;99.90;;;;;;2037430;69;21213;-77
2022/03/15 09:43:46;;;;;;;10.93;4.35;;;9.90;99.90;;;;;;2030623;69;21196;-76
2022/03/15 09:46:15;;;;;;;11.08;4.00;;;9.80;99.90;;;;;;2039252;69;21062;-76
2022/03/15 09:48:42;;;;;;;6.03;3.50;;;9.70;99.90;;;;;;2029328;69;21141;-77
2022/03/15 09:51:13;;;;;;;5.92;3.50;;;9.80;99.90;;;;;;2013122;69;21051;-75
2022/03/15 09:53:41;;;;;;;15.20;3.87;;;9.80;99.90;;;;;;2030907;69;21497;-75
2022/03/15 09:56:08;;;;;;;11.00;4.42;;;9.90;99.90;;;;;;2030175;69;21564;-76
2022/03/15 09:58:35;;;;;;;7.75;3.65;;;9.80;99.90;;;;;;2040753;69;21451;-77
2022/03/15 10:01:04;;;;;;;10.08;3.72;;;9.90;99.90;;;;;;2040889;69;21050;-75
2022/03/15 10:03:32;;;;;;;7.80;3.10;;;9.70;99.90;;;;;;2022481;69;21082;-77
2022/03/15 10:05:59;;;;;;;9.15;3.40;;;9.70;99.90;;;;;;2032009;69;21603;-76
2022/03/15 10:08:26;;;;;;;10.40;4.90;;;9.60;99.90;;;;;;2039701;69;21131;-76
2022/03/15 10:10:53;;;;;;;7.50;3.65;;;9.50;99.90;;;;;;2029716;70;21454;-77
2022/03/15 10:13:21;;;;;;;9.88;3.65;;;9.80;99.90;;;;;;2002656;70;21028;-77
2022/03/15 10:15:55;;;;;;;12.88;3.42;;;9.80;99.90;;;;;;2032138;69;21015;-76
2022/03/15 10:18:23;;;;;;;6.75;3.47;;;9.90;99.90;;;;;;1990742;69;21057;-77
2022/03/15 10:20:50;;;;;;;7.55;3.52;;;10.00;99.90;;;;;;2039054;69;21054;-76
2022/03/15 10:23:19;;;;;;;10.70;3.62;;;9.90;99.90;;;;;;2029571;70;21074;-76
2022/03/15 10:25:48;;;;;;;8.18;3.15;;;9.90;99.90;;;;;;2030511;69;21471;-76
2022/03/15 10:28:16;;;;;;;9.18;3.70;;;10.00;99.90;;;;;;2027855;69;21124;-77
2022/03/15 10:30:44;;;;;;;10.38;4.08;;;10.00;99.90;;;;;;2039651;69;21054;-77
2022/03/15 10:33:12;;;;;;;8.68;4.10;;;10.00;99.90;;;;;;2023346;70;21054;-77
2022/03/15 10:35:41;;;;;;;8.20;3.33;;;9.90;99.90;;;;;;2039489;69;21050;-76
2022/03/15 10:38:08;;;;;;;6.33;3.25;;;10.00;99.90;;;;;;2026401;69;21160;-76
2022/03/15 10:40:40;;;;;;;5.45;2.77;;;10.10;99.90;;;;;;2031965;69;21180;-76
2022/03/15 10:43:12;;;;;;;6.05;3.33;;;9.90;99.90;;;;;;2032051;69;21512;-77
2022/03/15 10:45:48;;;;;;;6.15;3.08;;;10.00;99.90;;;;;;2032061;70;21147;-76
2022/03/15 10:48:18;;;;;;;7.25;3.65;;;9.90;99.90;;;;;;2023442;69;21050;-76
2022/03/15 10:50:54;;;;;;;7.17;2.90;;;9.90;99.90;;;;;;2022701;69;21453;-76
2022/03/15 10:53:25;;;;;;;7.15;3.02;;;9.80;99.90;;;;;;2029749;70;21454;-76
2022/03/15 10:56:14;;;;;;;5.85;3.83;;;9.70;99.90;;;;;;2030854;70;21063;-77
2022/03/15 10:58:45;;;;;;;9.98;3.75;;;9.80;99.90;;;;;;2029418;69;21105;-75
2022/03/15 11:01:13;;;;;;;5.50;3.58;;;10.00;99.90;;;;;;2035886;70;21035;-76
2022/03/15 11:03:40;;;;;;;10.98;3.83;;;10.00;99.90;;;;;;2029837;69;21129;-76
2022/03/15 11:06:08;;;;;;;9.33;3.47;;;9.80;99.90;;;;;;2022186;70;21446;-76
2022/03/15 11:08:36;;;;;;;11.35;3.62;;;9.70;99.90;;;;;;2025112;69;21156;-76
2022/03/15 11:11:06;;;;;;;13.15;5.42;;;9.70;99.90;;;;;;2029912;69;21061;-75
2022/03/15 11:13:36;;;;;;;6.62;3.60;;;9.80;99.90;;;;;;2030042;69;21222;-77
2022/03/15 11:16:04;;;;;;;8.88;3.83;;;9.90;99.90;;;;;;1998651;70;21470;-76
2022/03/15 11:18:32;;;;;;;7.28;3.70;;;10.00;99.90;;;;;;2040616;69;21081;-76
2022/03/15 11:21:00;;;;;;;8.10;4.00;;;9.90;99.90;;;;;;2026640;69;21035;-77
2022/03/15 11:23:27;;;;;;;6.78;4.05;;;9.80;99.90;;;;;;2023942;70;21032;-76
2022/03/15 11:26:03;;;;;;;5.58;3.72;;;9.90;99.90;;;;;;2030905;69;21015;-76
2022/03/15 11:28:31;;;;;;;13.03;4.83;;;9.90;99.90;;;;;;2023598;69;21110;-76
2022/03/15 11:30:58;;;;;;;7.53;4.53;;;9.80;99.90;;;;;;2032189;69;21053;-76
2022/03/15 11:33:27;;;;;;;20.10;5.12;;;9.70;99.90;;;;;;1994592;70;21058;-74
2022/03/15 11:35:54;;;;;;;8.53;4.47;;;9.70;99.90;;;;;;2026379;69;21054;-75
2022/03/15 11:38:21;;;;;;;11.43;4.80;;;9.80;99.90;;;;;;2027583;69;21101;-75
2022/03/15 11:40:55;;;;;;;12.40;5.53;;;9.80;99.90;;;;;;2031010;69;21054;-75
2022/03/15 11:43:21;;;;;;;13.25;5.42;;;9.90;99.90;;;;;;2022597;69;21083;-75
2022/03/15 11:45:57;;;;;;;9.75;5.08;;;10.10;99.90;;;;;;2033377;69;21038;-76
2022/03/15 11:48:34;;;;;;;9.48;4.58;;;10.00;99.90;;;;;;2034685;69;21142;-75
2022/03/15 11:51:31;;;;;;;10.63;5.08;;;10.00;99.90;;;;;;2029434;69;21128;-74
2022/03/15 11:54:18;;;;;;;12.53;4.72;;;9.80;99.90;;;;;;2039686;69;21121;-75
2022/03/15 11:56:48;;;;;;;13.18;5.62;;;9.70;99.90;;;;;;2039681;69;21058;-76
2022/03/15 11:59:16;;;;;;;10.13;4.33;;;9.60;99.90;;;;;;2026891;69;21515;-76
2022/03/15 12:01:48;;;;;;;8.45;4.78;;;9.60;99.90;;;;;;2022462;69;21054;-76
2022/03/15 12:04:16;;;;;;;18.37;4.95;;;9.80;99.90;;;;;;2035935;69;21066;-74
2022/03/15 12:06:55;;;;;;;12.25;4.65;;;9.80;99.90;;;;;;2021542;70;21162;-74
2022/03/15 12:09:25;;;;;;;25.45;4.83;;;9.80;99.90;;;;;;2022562;69;21066;-74
2022/03/15 12:12:08;;;;;;;10.88;5.22;;;9.70;99.90;;;;;;2035527;69;21027;-74
2022/03/15 12:14:45;;;;;;;8.05;4.90;;;9.60;99.90;;;;;;2028756;69;21136;-75
2022/03/15 12:17:33;;;;;;;16.55;6.03;;;9.40;99.90;;;;;;2029990;69;21147;-75
2022/03/15 12:20:05;;;;;;;12.28;5.83;;;9.40;99.90;;;;;;1892185;75;21151;-77
2022/03/15 12:22:41;;;;;;;14.33;6.20;;;9.30;99.90;;;;;;1842693;75;21090;-76
2022/03/15 12:25:05;;;;;;;12.43;5.70;;;9.30;99.90;;;;;;1902225;75;21156;-75
2022/03/15 12:27:41;;;;;;;14.87;6.67;;;9.40;99.90;;;;;;1904694;75;21148;-76
2022/03/15 12:30:09;;;;;;;11.80;5.30;;;9.40;99.90;;;;;;1900487;75;21078;-76
2022/03/15 12:32:36;;;;;;;15.95;5.08;;;9.50;99.90;;;;;;1901286;75;21152;-76
2022/03/15 12:35:04;;;;;;;12.75;5.05;;;9.50;99.90;;;;;;1902228;75;21474;-76
2022/03/15 12:37:37;;;;;;;11.05;4.72;;;9.50;99.90;;;;;;1894218;75;21145;-76
2022/03/15 12:40:06;;;;;;;8.50;5.28;;;9.30;99.90;;;;;;1893950;75;21053;-75
2022/03/15 12:42:35;;;;;;;9.53;4.92;;;9.20;99.90;;;;;;1895475;75;21192;-75
2022/03/15 12:45:10;;;;;;;9.43;4.90;;;9.20;99.90;;;;;;1901589;75;21198;-75
2022/03/15 12:47:40;;;;;;;9.20;4.78;;;9.40;99.90;;;;;;1898717;75;21087;-76
2022/03/15 12:50:19;;;;;;;14.80;5.70;;;9.40;99.90;;;;;;1903387;75;21151;-76
2022/03/15 12:52:56;;;;;;;9.45;5.40;;;9.50;99.90;;;;;;1886005;75;21150;-75
2022/03/15 12:55:28;;;;;;;7.33;5.17;;;9.40;99.90;;;;;;1896749;75;21179;-75
2022/03/15 12:57:58;;;;;;;13.70;5.70;;;9.60;99.90;;;;;;1901766;75;21110;-74
2022/03/15 13:00:27;;;;;;;10.80;5.42;;;9.70;99.90;;;;;;1885340;75;21189;-75
2022/03/15 13:02:56;;;;;;;8.75;5.40;;;9.70;99.90;;;;;;1885191;75;21142;-75